Lake Havasu City, AZ (86403)

11:08 AM MST on February 19, 2017 (GMT -0700)
Tombomambo weather | | Change Station

Elev 705 ft 34.48 °N, 114.33 °W | Updated 13 seconds ago

Overcast
Overcast
58.3 °F
Feels Like 58.3 °F
N
4.9
Wind Variable Wind from SE
Gusts 7.4 mph

Today
High -- | Low -- °F
--% Chance of Precip.
Yesterday
High -- | Low -- °F
Precip. -- in
Pressure 29.84 in
Visibility 10.0 miles
Clouds Few 1400 ft
Mostly Cloudy 1800 ft
Overcast 3500 ft
Dew Point 52 °F
Humidity 81%
Rainfall 0.02 in
Snow Depth Not available.
7:17 AM 6:24 PM
Last Quarter, 41% visible
METAR KEED 191756Z AUTO 13008KT 10SM FEW014 BKN018 OVC035 14/11 A2988 RMK AO2 SLP105 60001 T01440111 10144 20122 53012
Pressure 29.84 in
Visibility 10.0 miles
Clouds Few 1400 ft
Mostly Cloudy 1800 ft
Overcast 3500 ft
Dew Point 52 °F
Humidity 81%
Rainfall 0.02 in
Snow Depth Not available.
7:17 AM 6:24 PM
Last Quarter, 41% visible
METAR KEED 191756Z AUTO 13008KT 10SM FEW014 BKN018 OVC035 14/11 A2988 RMK AO2 SLP105 60001 T01440111 10144 20122 53012

Get Your Daily Forecast Email!

Thanks for signing up!

Be on the lookout for a verification email in your inbox.

You'll start receiving the daily forecast at 8 AM.

×

10-Day Weather Forecast

Almanac

Astronomy

Feb. 19, 2017 Rise Set
Actual Time
Civil Twilight
Nautical Twilight
Astronomical Twilight
Moon
Length of Visible Light
Length of Day
Tomorrow will be .
, % of the Moon is Illuminated

Today's Extremes

State Highs State Lows

Community

WunderPhotos

Upload Photos

1,962,540 photos uploaded!

WunderBlog® & News

Nearby

Air Quality

  Air Quality AQ Index Pollutant
Not available.

Snow Depth

Station Depth Elevation

Earthquake Activity

City Distance Mag. Time & Date
Minimum magnitude displayed is 2.5.

Coastal Water Temperatures

Place Temperature

Stations

Nearby Weather Stations

Station Location Temp. Windchill Dew Point Humidity Wind Precip. Elev Updated Type
                   

Watches & Warnings

There are currently no watches in effect.